Time;durP1;ratioP1;P1;durP2;ratioP2;P2;SDS_P1;SDS_P2;PMS_P1;PMS_P2;Temp;Humidity;BMP_temperature;BMP_pressure;BME280_temperature;BME280_humidity;BME280_pressure;Samples;Min_cycle;Max_cycle;Signal;HPM_P1;HPM_P2
2022/12/07 00:01:06;;;;;;;;;;;7.80;99.90;;;;;;7337516;19;108960;-71
2022/12/07 00:03:33;;;;;;;;;;;7.80;99.90;;;;;;7342467;19;109523;-70
2022/12/07 00:06:01;;;;;;;;;;;7.80;99.90;;;;;;7336306;19;109491;-70
2022/12/07 00:08:28;;;;;;;;;;;7.80;99.90;;;;;;7335657;19;110549;-74
2022/12/07 00:10:55;;;;;;;;;;;7.80;99.90;;;;;;7335468;19;113433;-70
2022/12/07 00:13:22;;;;;;;;;;;7.80;99.90;;;;;;7334461;19;109371;-71
2022/12/07 00:15:48;;;;;;;;;;;7.80;99.90;;;;;;7335321;19;109904;-70
2022/12/07 00:18:15;;;;;;;;;;;7.70;99.90;;;;;;7333302;19;109814;-71
2022/12/07 00:20:42;;;;;;;;;;;7.70;99.90;;;;;;7335177;19;109224;-70
2022/12/07 00:23:09;;;;;;;;;;;7.70;99.90;;;;;;7332835;19;109307;-72
2022/12/07 00:25:36;;;;;;;;;;;7.70;99.90;;;;;;7340452;19;110663;-70
2022/12/07 00:28:03;;;;;;;;;;;7.70;99.90;;;;;;7336188;19;109704;-70
2022/12/07 00:30:30;;;;;;;;;;;7.70;99.90;;;;;;7334772;19;111039;-70
2022/12/07 00:32:57;;;;;;;;;;;7.70;99.90;;;;;;7334333;19;108670;-70
2022/12/07 00:35:24;;;;;;;;;;;7.70;99.90;;;;;;7335189;19;109290;-70
2022/12/07 00:37:51;;;;;;;;;;;7.70;99.90;;;;;;7333767;19;110338;-70
2022/12/07 00:40:18;;;;;;;;;;;7.70;99.90;;;;;;7331608;19;108968;-70
2022/12/07 00:42:44;;;;;;;;;;;7.70;99.90;;;;;;7339961;19;109206;-71
2022/12/07 00:45:11;;;;;;;;;;;7.60;99.90;;;;;;7339974;19;109719;-70
2022/12/07 00:47:38;;;;;;;;;;;7.60;99.90;;;;;;7347985;19;108531;-72
2022/12/07 00:50:05;;;;;;;;;;;7.60;99.90;;;;;;7338853;19;110676;-75
2022/12/07 00:52:32;;;;;;;;;;;7.60;99.90;;;;;;7338912;19;109208;-72
2022/12/07 00:54:59;;;;;;;;;;;7.60;99.90;;;;;;7341799;19;109492;-71
2022/12/07 00:57:26;;;;;;;;;;;7.60;99.90;;;;;;7340986;19;110052;-72
2022/12/07 00:59:57;;;;;;;;;;;7.60;99.90;;;;;;7342465;19;108590;-75
2022/12/07 01:02:24;;;;;;;;;;;7.60;99.90;;;;;;7341280;19;109213;-78
2022/12/07 01:04:51;;;;;;;;;;;7.60;99.90;;;;;;7340803;19;109616;-73
2022/12/07 01:07:18;;;;;;;;;;;7.60;99.90;;;;;;7340817;19;108996;-71
2022/12/07 01:09:45;;;;;;;;;;;7.60;99.90;;;;;;7347016;19;109276;-71
2022/12/07 01:12:12;;;;;;;;;;;7.60;99.90;;;;;;7341188;19;108456;-71
2022/12/07 01:14:38;;;;;;;;;;;7.60;99.90;;;;;;7340933;19;110591;-71
2022/12/07 01:17:06;;;;;;;;;;;7.60;99.90;;;;;;7341033;19;110605;-71
2022/12/07 01:19:32;;;;;;;;;;;7.60;99.90;;;;;;7341560;19;109138;-74
2022/12/07 01:21:59;;;;;;;;;;;7.60;99.90;;;;;;7340893;19;109061;-70
2022/12/07 01:24:26;;;;;;;;;;;7.60;99.90;;;;;;7339760;19;110303;-71
2022/12/07 01:26:53;;;;;;;;;;;7.60;99.90;;;;;;7341504;19;111608;-70
2022/12/07 01:29:20;;;;;;;;;;;7.60;99.90;;;;;;7344470;19;108581;-70
2022/12/07 01:31:48;;;;;;;;;;;7.60;99.90;;;;;;7341129;19;109737;-71
2022/12/07 01:34:15;;;;;;;;;;;7.60;99.90;;;;;;7340731;19;109994;-70
2022/12/07 01:36:42;;;;;;;;;;;7.60;99.90;;;;;;7341465;19;109977;-72
2022/12/07 01:39:09;;;;;;;;;;;7.50;99.90;;;;;;7338112;19;109718;-70
2022/12/07 01:41:43;;;;;;;;;;;7.50;99.90;;;;;;7339258;19;109292;-70
2022/12/07 01:44:13;;;;;;;;;;;7.50;99.90;;;;;;7340326;19;110204;-70
2022/12/07 01:46:40;;;;;;;;;;;7.50;99.90;;;;;;7339994;19;108622;-70
2022/12/07 01:49:10;;;;;;;;;;;7.50;99.90;;;;;;7340067;19;112638;-70
2022/12/07 01:51:38;;;;;;;;;;;7.50;99.90;;;;;;7346790;19;111356;-70
2022/12/07 01:54:05;;;;;;;;;;;7.50;99.90;;;;;;7338972;19;108605;-70
2022/12/07 01:56:32;;;;;;;;;;;7.50;99.90;;;;;;7338104;19;109557;-70
2022/12/07 01:58:59;;;;;;;;;;;7.50;99.90;;;;;;7342500;19;109209;-70
2022/12/07 02:01:26;;;;;;;;;;;7.40;99.90;;;;;;7337297;19;109487;-70
2022/12/07 02:03:53;;;;;;;;;;;7.40;99.90;;;;;;7340302;19;111022;-70
2022/12/07 02:06:23;;;;;;;;;;;7.40;99.90;;;;;;7338887;19;108878;-71
2022/12/07 02:08:50;;;;;;;;;;;7.40;99.90;;;;;;7340258;19;108665;-70
2022/12/07 02:11:17;;;;;;;;;;;7.40;99.90;;;;;;7337087;19;109638;-70
2022/12/07 02:13:44;;;;;;;;;;;7.40;99.90;;;;;;7345123;19;108485;-71
2022/12/07 02:16:14;;;;;;;;;;;7.40;99.90;;;;;;7338939;19;109945;-70
2022/12/07 02:18:45;;;;;;;;;;;7.40;99.90;;;;;;7338810;19;119646;-70
2022/12/07 02:21:18;;;;;;;;;;;7.40;99.90;;;;;;7337577;19;108996;-70
2022/12/07 02:24:03;;;;;;;;;;;7.40;99.90;;;;;;7337740;19;112035;-70
2022/12/07 02:26:30;;;;;;;;;;;7.30;99.90;;;;;;7337321;19;108644;-70
2022/12/07 02:29:10;;;;;;;;;;;7.30;99.90;;;;;;7339046;19;109104;-70
2022/12/07 02:31:40;;;;;;;;;;;7.30;99.90;;;;;;7334283;19;109202;-72
2022/12/07 02:34:11;;;;;;;;;;;7.30;99.90;;;;;;7338036;19;108663;-70
2022/12/07 02:36:42;;;;;;;;;;;7.30;99.90;;;;;;7340968;19;109574;-70
2022/12/07 02:39:16;;;;;;;;;;;7.30;99.90;;;;;;7337915;19;110435;-70
2022/12/07 02:41:46;;;;;;;;;;;7.30;99.90;;;;;;7340385;19;108764;-70
2022/12/07 02:44:16;;;;;;;;;;;7.20;99.90;;;;;;7335615;19;109891;-70
2022/12/07 02:46:47;;;;;;;;;;;7.20;99.90;;;;;;7339254;19;110119;-70
2022/12/07 02:49:14;;;;;;;;;;;7.10;99.90;;;;;;7337904;19;110782;-71
2022/12/07 02:51:42;;;;;;;;;;;7.10;99.90;;;;;;7336383;19;111893;-70
2022/12/07 02:54:19;;;;;;;;;;;7.10;99.90;;;;;;7336266;19;108564;-70
2022/12/07 02:56:57;;;;;;;;;;;7.10;99.90;;;;;;7337118;19;108885;-70
2022/12/07 02:59:33;;;;;;;;;;;7.00;99.90;;;;;;7342473;19;110178;-71
2022/12/07 03:02:12;;;;;;;;;;;7.00;99.90;;;;;;7340893;19;109173;-70
2022/12/07 03:04:46;;;;;;;;;;;7.00;99.90;;;;;;7336592;19;110667;-70
2022/12/07 03:07:18;;;;;;;;;;;7.00;99.90;;;;;;7337010;19;109414;-70
2022/12/07 03:09:53;;;;;;;;;;;7.00;99.90;;;;;;7337987;19;109315;-71
2022/12/07 03:12:23;;;;;;;;;;;7.00;99.90;;;;;;7336220;19;110614;-70
2022/12/07 03:14:57;;;;;;;;;;;7.00;99.90;;;;;;7337997;19;110149;-70
2022/12/07 03:17:25;;;;;;;;;;;7.00;99.90;;;;;;7336975;19;110726;-70
2022/12/07 03:19:53;;;;;;;;;;;6.90;99.90;;;;;;7336812;19;110487;-72
2022/12/07 03:22:21;;;;;;;;;;;6.90;99.90;;;;;;7343250;19;109176;-74
2022/12/07 03:24:55;;;;;;;;;;;6.90;99.90;;;;;;7337578;19;110714;-76
2022/12/07 03:27:25;;;;;;;;;;;6.90;99.90;;;;;;7334900;19;110360;-77
2022/12/07 03:30:03;;;;;;;;;;;6.90;99.90;;;;;;7336952;19;109699;-78
2022/12/07 03:32:44;;;;;;;;;;;6.80;99.90;;;;;;7334454;19;110521;-77
2022/12/07 03:35:16;;;;;;;;;;;6.80;99.90;;;;;;7340225;19;109108;-75
2022/12/07 03:37:49;;;;;;;;;;;6.80;99.90;;;;;;7337842;19;108544;-73
2022/12/07 03:40:22;;;;;;;;;;;6.80;99.90;;;;;;7334850;19;110262;-77
2022/12/07 03:42:50;;;;;;;;;;;6.80;99.90;;;;;;7340864;19;108717;-79
2022/12/07 03:45:17;;;;;;;;;;;6.70;99.90;;;;;;7333422;19;110235;-77
2022/12/07 03:47:48;;;;;;;;;;;6.70;99.90;;;;;;7335335;19;109738;-73
2022/12/07 03:50:20;;;;;;;;;;;6.60;99.90;;;;;;7335675;19;109405;-70
2022/12/07 03:52:55;;;;;;;;;;;6.60;99.90;;;;;;7334797;19;111219;-70
2022/12/07 03:55:31;;;;;;;;;;;6.50;99.90;;;;;;7335619;19;109191;-70
2022/12/07 03:58:01;;;;;;;;;;;6.50;99.90;;;;;;7335959;19;109337;-71
2022/12/07 04:00:29;;;;;;;;;;;6.40;99.90;;;;;;7334045;19;112457;-70
2022/12/07 04:02:55;;;;;;;;;;;6.40;99.90;;;;;;7335219;19;108971;-70
2022/12/07 04:05:23;;;;;;;;;;;6.30;99.90;;;;;;7339522;19;108718;-70
2022/12/07 04:07:50;;;;;;;;;;;6.20;99.90;;;;;;7335749;19;108591;-70
2022/12/07 04:10:17;;;;;;;;;;;6.20;99.90;;;;;;7332868;19;109503;-70
2022/12/07 04:12:44;;;;;;;;;;;6.20;99.90;;;;;;7334943;19;110342;-70
2022/12/07 04:15:11;;;;;;;;;;;6.10;99.90;;;;;;7333709;19;108622;-70
2022/12/07 04:17:39;;;;;;;;;;;6.10;99.90;;;;;;7340201;19;108705;-70
2022/12/07 04:20:06;;;;;;;;;;;6.00;99.90;;;;;;7339886;19;109155;-70
2022/12/07 04:22:33;;;;;;;;;;;6.00;99.90;;;;;;7342151;19;109239;-70
2022/12/07 04:25:00;;;;;;;;;;;6.00;99.90;;;;;;7341418;19;108781;-70
2022/12/07 04:27:27;;;;;;;;;;;5.90;99.90;;;;;;7346334;19;110137;-70
2022/12/07 04:29:55;;;;;;;;;;;5.90;99.90;;;;;;7339908;19;111757;-70
2022/12/07 04:32:22;;;;;;;;;;;5.80;99.90;;;;;;7341624;19;110752;-70
2022/12/07 04:34:49;;;;;;;;;;;5.70;99.90;;;;;;7344795;19;109446;-70
2022/12/07 04:37:21;;;;;;;;;;;5.70;99.90;;;;;;7341245;19;111588;-70
2022/12/07 04:39:48;;;;;;;;;;;5.60;99.90;;;;;;7342374;19;110067;-70
2022/12/07 04:42:15;;;;;;;;;;;5.60;99.90;;;;;;7341631;19;108519;-70
2022/12/07 04:44:42;;;;;;;;;;;5.50;99.90;;;;;;7343370;19;111717;-70
2022/12/07 04:47:09;;;;;;;;;;;5.50;99.90;;;;;;7341482;19;110346;-71
2022/12/07 04:49:36;;;;;;;;;;;5.60;99.90;;;;;;7349870;19;109219;-70
2022/12/07 04:52:03;;;;;;;;;;;5.60;99.90;;;;;;7342115;19;110250;-70
2022/12/07 04:54:30;;;;;;;;;;;5.60;99.90;;;;;;7341722;19;108413;-70
2022/12/07 04:56:57;;;;;;;;;;;5.70;99.90;;;;;;7342758;19;108407;-70
2022/12/07 04:59:23;;;;;;;;;;;5.70;99.90;;;;;;7339914;19;111569;-70
2022/12/07 05:01:50;;;;;;;;;;;5.70;99.90;;;;;;7339995;19;109370;-70
2022/12/07 05:04:17;;;;;;;;;;;5.80;99.90;;;;;;7339893;19;109022;-70
2022/12/07 05:06:44;;;;;;;;;;;5.80;99.90;;;;;;7341692;19;112299;-70
2022/12/07 05:09:11;;;;;;;;;;;5.80;99.90;;;;;;7341501;19;108905;-70
2022/12/07 05:11:38;;;;;;;;;;;5.90;99.90;;;;;;7346605;19;108747;-70
2022/12/07 05:14:10;;;;;;;;;;;5.90;99.90;;;;;;7341238;19;108813;-70
2022/12/07 05:16:37;;;;;;;;;;;5.90;99.90;;;;;;7342020;19;109280;-70
2022/12/07 05:19:04;;;;;;;;;;;5.90;99.90;;;;;;7341874;19;110239;-70
2022/12/07 05:21:31;;;;;;;;;;;5.90;99.90;;;;;;7340597;19;109080;-70
2022/12/07 05:23:58;;;;;;;;;;;5.90;99.90;;;;;;7341430;19;108692;-70
2022/12/07 05:26:26;;;;;;;;;;;5.90;99.90;;;;;;7340275;19;110851;-71
2022/12/07 05:28:53;;;;;;;;;;;5.90;99.90;;;;;;7339327;19;108854;-70
2022/12/07 05:31:20;;;;;;;;;;;5.90;99.90;;;;;;7339074;19;108259;-70
2022/12/07 05:33:47;;;;;;;;;;;5.90;99.90;;;;;;7344384;19;109664;-70
2022/12/07 05:36:14;;;;;;;;;;;5.90;99.90;;;;;;7337739;19;109551;-70
2022/12/07 05:38:41;;;;;;;;;;;5.90;99.90;;;;;;7339746;19;110485;-70
2022/12/07 05:42:11;;;;;;;;;;;5.90;99.90;;;;;;7339935;19;108551;-70
2022/12/07 05:43:59;;;;;;;;;;;5.90;99.90;;;;;;7339183;19;108762;-70
2022/12/07 05:46:26;;;;;;;;;;;6.00;99.90;;;;;;7336863;19;110428;-70
2022/12/07 05:48:53;;;;;;;;;;;6.00;99.90;;;;;;7337939;19;108488;-70
2022/12/07 05:51:20;;;;;;;;;;;6.00;99.90;;;;;;7339337;19;109667;-71
2022/12/07 05:53:47;;;;;;;;;;;6.00;99.90;;;;;;7345300;19;110288;-70
2022/12/07 05:56:14;;;;;;;;;;;6.00;99.90;;;;;;7341164;19;109471;-70
2022/12/07 06:01:26;;;;;;;;;;;5.90;99.90;;;;;;7339594;19;109028;-70
2022/12/07 06:03:53;;;;;;;;;;;5.90;99.90;;;;;;7339559;19;110661;-71
2022/12/07 06:06:20;;;;;;;;;;;5.90;99.90;;;;;;7338312;19;109630;-70
2022/12/07 06:08:47;;;;;;;;;;;5.90;99.90;;;;;;7338651;19;108317;-70
2022/12/07 06:14:00;;;;;;;;;;;5.90;99.90;;;;;;7338917;19;109487;-70
2022/12/07 06:16:27;;;;;;;;;;;5.80;99.90;;;;;;7341805;19;108442;-71
2022/12/07 06:18:54;;;;;;;;;;;5.80;99.90;;;;;;7338958;19;110844;-70
2022/12/07 06:21:21;;;;;;;;;;;5.80;99.90;;;;;;7338617;19;108737;-70
2022/12/07 06:23:48;;;;;;;;;;;5.70;99.90;;;;;;7340291;19;110299;-71
2022/12/07 06:26:14;;;;;;;;;;;5.70;99.90;;;;;;7337286;19;110774;-70
2022/12/07 06:28:41;;;;;;;;;;;5.70;99.90;;;;;;7339298;19;108981;-70
2022/12/07 06:31:09;;;;;;;;;;;5.70;99.90;;;;;;7339078;19;113513;-70
2022/12/07 06:33:40;;;;;;;;;;;5.70;99.90;;;;;;7339841;19;110240;-70
2022/12/07 06:36:07;;;;;;;;;;;5.70;99.90;;;;;;7339521;19;109267;-70
2022/12/07 06:38:34;;;;;;;;;;;5.60;99.90;;;;;;7340731;19;109876;-70
2022/12/07 06:41:01;;;;;;;;;;;5.60;99.90;;;;;;7336466;19;108949;-70
2022/12/07 06:43:28;;;;;;;;;;;5.60;99.90;;;;;;7335922;19;109324;-70
2022/12/07 06:45:56;;;;;;;;;;;5.60;99.90;;;;;;7335974;19;109526;-70
2022/12/07 06:48:23;;;;;;;;;;;5.50;99.90;;;;;;7335485;19;108623;-70
2022/12/07 06:50:50;;;;;;;;;;;5.50;99.90;;;;;;7335331;19;111345;-70
2022/12/07 06:53:20;;;;;;;;;;;5.40;99.90;;;;;;7334692;19;110272;-70
2022/12/07 06:55:47;;;;;;;;;;;5.40;99.90;;;;;;7338045;19;108670;-69
2022/12/07 06:58:14;;;;;;;;;;;5.40;99.90;;;;;;7335671;19;108820;-70
2022/12/07 07:00:42;;;;;;;;;;;5.40;99.90;;;;;;7339948;19;109231;-70
2022/12/07 07:03:08;;;;;;;;;;;5.40;99.90;;;;;;7336637;19;109495;-70
2022/12/07 07:05:36;;;;;;;;;;;5.30;99.90;;;;;;7336767;19;110978;-70
2022/12/07 07:08:03;;;;;;;;;;;5.30;99.90;;;;;;7334990;19;108951;-70
2022/12/07 07:10:47;;;;;;;;;;;5.20;99.90;;;;;;7339498;19;109175;-70
2022/12/07 07:13:14;;;;;;;;;;;5.20;99.90;;;;;;7335571;19;110422;-70
2022/12/07 07:15:41;;;;;;;;;;;5.10;99.90;;;;;;7335033;19;108891;-70
2022/12/07 07:18:09;;;;;;;;;;;5.10;99.90;;;;;;7333239;19;109559;-70
2022/12/07 07:20:36;;;;;;;;;;;5.00;99.90;;;;;;7335311;19;110298;-70
2022/12/07 07:23:03;;;;;;;;;;;5.00;99.90;;;;;;7339735;19;108344;-70
2022/12/07 07:25:30;;;;;;;;;;;5.00;99.90;;;;;;7333965;19;110382;-70
2022/12/07 07:27:56;;;;;;;;;;;4.90;99.90;;;;;;7335481;19;108666;-70
2022/12/07 07:30:24;;;;;;;;;;;4.90;99.90;;;;;;7333492;19;110516;-70
2022/12/07 07:32:51;;;;;;;;;;;4.90;99.90;;;;;;7334982;19;110187;-70
2022/12/07 07:35:18;;;;;;;;;;;4.90;99.90;;;;;;7335485;19;108790;-70
2022/12/07 07:37:45;;;;;;;;;;;4.90;99.90;;;;;;7145064;19;3690763;-70
2022/12/07 07:40:12;;;;;;;;;;;4.90;99.90;;;;;;7336666;19;109799;-70
2022/12/07 07:42:39;;;;;;;;;;;4.80;99.90;;;;;;7338177;19;111878;-70
2022/12/07 07:45:06;;;;;;;;;;;4.80;99.90;;;;;;7337882;19;109191;-70
2022/12/07 07:47:33;;;;;;;;;;;4.80;99.90;;;;;;7336212;19;108783;-70
2022/12/07 07:50:00;;;;;;;;;;;4.80;99.90;;;;;;7336561;19;109236;-70
2022/12/07 07:52:27;;;;;;;;;;;4.70;99.90;;;;;;7330859;19;110717;-70
2022/12/07 07:54:54;;;;;;;;;;;4.70;99.90;;;;;;7337820;19;109258;-70
2022/12/07 07:57:21;;;;;;;;;;;4.70;99.90;;;;;;7335829;19;109543;-70
2022/12/07 07:59:48;;;;;;;;;;;4.70;99.90;;;;;;7337799;19;109892;-70
2022/12/07 08:02:16;;;;;;;;;;;4.80;99.90;;;;;;7336179;19;109496;-70
2022/12/07 08:04:44;;;;;;;;;;;4.80;99.90;;;;;;7340135;19;109697;-70
2022/12/07 08:07:11;;;;;;;;;;;4.80;99.90;;;;;;7337135;19;108461;-70
2022/12/07 08:09:38;;;;;;;;;;;4.80;99.90;;;;;;7338693;19;109113;-70
2022/12/07 08:12:06;;;;;;;;;;;4.90;99.90;;;;;;7336850;19;110190;-70
2022/12/07 08:14:33;;;;;;;;;;;4.90;99.90;;;;;;7332876;19;108514;-70
2022/12/07 08:17:01;;;;;;;;;;;4.90;99.90;;;;;;7336200;19;109403;-70
2022/12/07 08:19:27;;;;;;;;;;;4.90;99.90;;;;;;7337246;19;110794;-70
2022/12/07 08:21:55;;;;;;;;;;;5.00;99.90;;;;;;7336601;19;108814;-70
2022/12/07 08:24:22;;;;;;;;;;;5.00;99.90;;;;;;7334726;19;109375;-70
2022/12/07 08:26:50;;;;;;;;;;;5.10;99.90;;;;;;7342420;19;110699;-70
2022/12/07 08:29:17;;;;;;;;;;;5.10;99.90;;;;;;7335236;19;109573;-70
2022/12/07 08:31:44;;;;;;;;;;;5.10;99.90;;;;;;7334673;19;109704;-70
2022/12/07 08:34:11;;;;;;;;;;;5.10;99.90;;;;;;7334042;19;109518;-70
2022/12/07 08:36:39;;;;;;;;;;;5.20;99.90;;;;;;7335719;19;112156;-70
2022/12/07 08:39:05;;;;;;;;;;;5.20;99.90;;;;;;7333371;19;109300;-70
2022/12/07 08:41:52;;;;;;;;;;;5.20;99.90;;;;;;7334852;19;109608;-70
2022/12/07 08:44:19;;;;;;;;;;;5.20;99.90;;;;;;7331747;19;109257;-70
2022/12/07 08:46:56;;;;;;;;;;;5.30;99.90;;;;;;7326613;19;109084;-70
2022/12/07 08:49:26;;;;;;;;;;;5.30;99.90;;;;;;7333514;19;108673;-70
2022/12/07 08:51:54;;;;;;;;;;;5.40;99.90;;;;;;7328645;19;110183;-70
2022/12/07 08:54:21;;;;;;;;;;;5.40;99.90;;;;;;7328183;19;108904;-70
2022/12/07 08:56:50;;;;;;;;;;;5.50;99.90;;;;;;7331133;19;109192;-70
2022/12/07 08:59:26;;;;;;;;;;;5.60;99.90;;;;;;7329507;19;110514;-71
2022/12/07 09:01:52;;;;;;;;;;;5.60;99.90;;;;;;7335356;19;109079;-70
2022/12/07 09:04:20;;;;;;;;;;;5.70;99.90;;;;;;7340944;19;108525;-70
2022/12/07 09:06:47;;;;;;;;;;;5.70;99.90;;;;;;7342094;19;110863;-70
2022/12/07 09:09:14;;;;;;;;;;;5.80;99.90;;;;;;7338590;19;108828;-70
2022/12/07 09:11:41;;;;;;;;;;;5.90;99.90;;;;;;7343873;19;109458;-70
2022/12/07 09:14:08;;;;;;;;;;;5.90;99.90;;;;;;7341576;19;109403;-70
2022/12/07 09:16:35;;;;;;;;;;;6.00;99.90;;;;;;7341464;19;109394;-70
2022/12/07 09:19:04;;;;;;;;;;;6.00;99.90;;;;;;7342276;19;110147;-70
2022/12/07 09:21:31;;;;;;;;;;;6.10;99.90;;;;;;7339800;19;108840;-69
2022/12/07 09:23:58;;;;;;;;;;;6.10;99.90;;;;;;7342055;19;109440;-69
2022/12/07 09:26:25;;;;;;;;;;;6.20;99.90;;;;;;7338370;19;109504;-69
2022/12/07 09:28:52;;;;;;;;;;;6.30;99.90;;;;;;7341063;19;109273;-69
2022/12/07 09:31:19;;;;;;;;;;;6.30;99.90;;;;;;7340571;19;109634;-69
2022/12/07 09:33:57;;;;;;;;;;;6.40;99.90;;;;;;7346806;19;110646;-69
2022/12/07 09:36:25;;;;;;;;;;;6.50;99.90;;;;;;7341828;19;109434;-69
2022/12/07 09:38:52;;;;;;;;;;;6.50;99.90;;;;;;7341624;19;110138;-69
2022/12/07 09:41:20;;;;;;;;;;;6.60;99.90;;;;;;7341491;19;108402;-68
2022/12/07 09:43:47;;;;;;;;;;;6.60;99.90;;;;;;7341998;19;110475;-68
2022/12/07 09:46:15;;;;;;;;;;;6.60;99.90;;;;;;7340276;19;111121;-68
2022/12/07 09:48:43;;;;;;;;;;;6.70;99.90;;;;;;7340132;19;109486;-69
2022/12/07 09:51:14;;;;;;;;;;;6.70;99.90;;;;;;7338363;19;109134;-68
2022/12/07 09:53:48;;;;;;;;;;;6.80;99.90;;;;;;7340492;19;113723;-68
2022/12/07 09:56:16;;;;;;;;;;;6.80;99.90;;;;;;7344664;19;108607;-68
2022/12/07 09:58:44;;;;;;;;;;;6.80;99.90;;;;;;7336835;19;110017;-69
2022/12/07 10:01:13;;;;;;;;;;;6.90;99.90;;;;;;7338149;19;108388;-68
2022/12/07 10:03:44;;;;;;;;;;;7.00;99.90;;;;;;7338230;19;109110;-69
2022/12/07 10:06:12;;;;;;;;;;;7.00;99.90;;;;;;7337698;19;111337;-69
2022/12/07 10:08:41;;;;;;;;;;;7.10;99.90;;;;;;7339174;19;108517;-69
2022/12/07 10:11:10;;;;;;;;;;;7.20;99.90;;;;;;7337112;19;109596;-69
2022/12/07 10:13:37;;;;;;;;;;;7.20;99.90;;;;;;7336932;19;110341;-69
2022/12/07 10:16:04;;;;;;;;;;;7.20;99.90;;;;;;7345217;19;108466;-69
2022/12/07 10:18:43;;;;;;;;;;;7.30;99.90;;;;;;7338815;19;111933;-68
2022/12/07 10:21:16;;;;;;;;;;;7.30;99.90;;;;;;7336319;19;108968;-68
2022/12/07 10:24:00;;;;;;;;;;;7.40;99.90;;;;;;7342223;19;109965;-69
2022/12/07 10:26:41;;;;;;;;;;;7.50;99.90;;;;;;7340121;19;110093;-69
2022/12/07 10:29:16;;;;;;;;;;;7.70;99.90;;;;;;7340404;19;108826;-68
2022/12/07 10:31:43;;;;;;;;;;;7.80;99.90;;;;;;7339947;19;111773;-68
2022/12/07 10:34:20;;;;;;;;;;;8.00;99.90;;;;;;7338620;19;110156;-69
2022/12/07 10:36:47;;;;;;;;;;;8.10;99.90;;;;;;7340541;19;108602;-68
2022/12/07 10:39:15;;;;;;;;;;;8.10;99.90;;;;;;7342853;19;109364;-69
2022/12/07 10:42:02;;;;;;;;;;;8.10;99.90;;;;;;7338974;19;108765;-69
2022/12/07 10:44:30;;;;;;;;;;;8.20;99.90;;;;;;7339370;19;112601;-69
2022/12/07 10:47:02;;;;;;;;;;;8.20;99.90;;;;;;7338202;19;111117;-69
2022/12/07 10:49:48;;;;;;;;;;;8.20;99.90;;;;;;7337802;19;108579;-69
2022/12/07 10:52:21;;;;;;;;;;;8.20;99.90;;;;;;7336631;19;109420;-69
2022/12/07 10:54:53;;;;;;;;;;;8.20;99.90;;;;;;7339603;19;109799;-69
2022/12/07 10:57:23;;;;;;;;;;;8.20;99.90;;;;;;7339953;19;109280;-69
2022/12/07 10:59:58;;;;;;;;;;;8.20;99.90;;;;;;7339343;19;109383;-69
2022/12/07 11:02:35;;;;;;;;;;;8.20;99.90;;;;;;7342167;19;110012;-69
2022/12/07 11:05:02;;;;;;;;;;;8.20;99.90;;;;;;7338792;19;110296;-69
2022/12/07 11:07:38;;;;;;;;;;;8.20;99.90;;;;;;7338572;19;110776;-69
2022/12/07 11:10:10;;;;;;;;;;;8.20;99.90;;;;;;7337892;19;108762;-69
2022/12/07 11:12:37;;;;;;;;;;;8.20;99.90;;;;;;7336998;19;108856;-69
2022/12/07 11:15:13;;;;;;;;;;;8.20;99.90;;;;;;7337005;19;112654;-69
2022/12/07 11:17:56;;;;;;;;;;;8.20;99.90;;;;;;7337495;19;108739;-69
2022/12/07 11:20:23;;;;;;;;;;;8.20;99.90;;;;;;7338429;19;109114;-69
2022/12/07 11:22:55;;;;;;;;;;;8.30;99.90;;;;;;7339202;19;110742;-69
2022/12/07 11:25:22;;;;;;;;;;;8.30;99.90;;;;;;7341537;19;109006;-68
2022/12/07 11:28:13;;;;;;;;;;;8.40;99.90;;;;;;7337687;19;110212;-69
2022/12/07 11:30:52;;;;;;;;;;;8.40;99.90;;;;;;7335012;19;111254;-70
2022/12/07 11:33:26;;;;;;;;;;;8.40;99.90;;;;;;7334185;19;108800;-70
2022/12/07 11:36:11;;;;;;;;;;;8.40;99.90;;;;;;7337887;19;110420;-68
2022/12/07 11:38:53;;;;;;;;;;;8.40;99.90;;;;;;7337575;19;112685;-69
2022/12/07 11:41:22;;;;;;;;;;;8.50;99.90;;;;;;7337664;19;109702;-69
2022/12/07 11:43:52;;;;;;;;;;;8.50;99.90;;;;;;7337258;19;110289;-69
2022/12/07 11:46:19;;;;;;;;;;;8.50;99.90;;;;;;7336656;19;109263;-69
2022/12/07 11:48:52;;;;;;;;;;;8.60;99.90;;;;;;7342457;19;109238;-68
2022/12/07 11:51:21;;;;;;;;;;;8.70;99.90;;;;;;7338670;19;108769;-68
2022/12/07 11:53:52;;;;;;;;;;;8.70;99.90;;;;;;7335876;19;108970;-69
2022/12/07 11:56:21;;;;;;;;;;;8.80;99.90;;;;;;7337554;19;110250;-69
2022/12/07 11:58:51;;;;;;;;;;;8.80;99.90;;;;;;7336652;19;108607;-69
2022/12/07 12:01:19;;;;;;;;;;;8.80;99.90;;;;;;7337919;19;110579;-69
2022/12/07 12:03:50;;;;;;;;;;;8.80;99.90;;;;;;7337381;19;111387;-69
2022/12/07 12:06:19;;;;;;;;;;;8.80;99.90;;;;;;7338816;19;108434;-69
2022/12/07 12:09:04;;;;;;;;;;;8.90;99.90;;;;;;7343769;19;109163;-69
2022/12/07 12:11:57;;;;;;;;;;;8.90;99.90;;;;;;7337286;19;109262;-69
2022/12/07 12:15:02;;;;;;;;;;;9.00;99.90;;;;;;7337407;19;108752;-69
2022/12/07 12:17:30;;;;;;;;;;;9.10;99.90;;;;;;7335634;19;109775;-69
2022/12/07 12:19:59;;;;;;;;;;;9.10;99.90;;;;;;7336772;19;108786;-69
2022/12/07 12:22:33;;;;;;;;;;;9.10;99.90;;;;;;7336590;19;109442;-69
2022/12/07 12:25:03;;;;;;;;;;;9.10;99.90;;;;;;7336645;19;110165;-69
2022/12/07 12:27:32;;;;;;;;;;;9.10;99.90;;;;;;7336270;19;109362;-69
2022/12/07 12:30:00;;;;;;;;;;;9.10;99.90;;;;;;7337206;19;109618;-70
2022/12/07 12:32:40;;;;;;;;;;;9.10;99.90;;;;;;7340827;19;109465;-69
2022/12/07 12:35:25;;;;;;;;;;;9.10;99.90;;;;;;7336954;19;109150;-69
2022/12/07 12:37:53;;;;;;;;;;;9.10;99.90;;;;;;7338931;19;111572;-68
2022/12/07 12:40:20;;;;;;;;;;;9.10;99.90;;;;;;7342742;19;108688;-69
2022/12/07 12:42:48;;;;;;;;;;;9.10;99.90;;;;;;7344697;19;109532;-69
2022/12/07 12:45:22;;;;;;;;;;;9.10;99.90;;;;;;7340756;19;109472;-69
2022/12/07 12:47:55;;;;;;;;;;;9.10;99.90;;;;;;7343353;19;108502;-69
2022/12/07 12:50:26;;;;;;;;;;;9.00;99.90;;;;;;7342317;19;109487;-69
2022/12/07 12:53:05;;;;;;;;;;;9.10;99.90;;;;;;7342658;19;110016;-69
2022/12/07 12:55:41;;;;;;;;;;;9.00;99.90;;;;;;7349216;19;108603;-69
2022/12/07 12:58:20;;;;;;;;;;;9.00;99.90;;;;;;7343925;19;109850;-75
2022/12/07 13:00:47;;;;;;;;;;;9.00;99.90;;;;;;7342917;19;108353;-79
2022/12/07 13:03:28;;;;;;;;;;;9.00;99.90;;;;;;7341367;19;109365;-75
2022/12/07 13:06:13;;;;;;;;;;;9.00;99.90;;;;;;7340668;19;109348;-77
2022/12/07 13:08:41;;;;;;;;;;;8.90;99.90;;;;;;7341563;19;108383;-74
2022/12/07 13:11:27;;;;;;;;;;;8.90;99.90;;;;;;7341743;19;108719;-76
2022/12/07 13:14:14;;;;;;;;;;;8.90;99.90;;;;;;7341084;19;110272;-78
2022/12/07 13:16:41;;;;;;;;;;;8.90;99.90;;;;;;7343336;19;109067;-69
2022/12/07 13:19:37;;;;;;;;;;;8.80;99.90;;;;;;7347316;19;113469;-68
2022/12/07 13:22:24;;;;;;;;;;;8.70;99.90;;;;;;7340048;19;108541;-70
2022/12/07 13:25:03;;;;;;;;;;;8.70;99.90;;;;;;7343930;19;109316;-69
2022/12/07 13:27:31;;;;;;;;;;;8.70;99.90;;;;;;7340747;19;113598;-69
2022/12/07 13:29:58;;;;;;;;;;;8.60;99.90;;;;;;7342014;19;108395;-68
2022/12/07 13:32:26;;;;;;;;;;;8.60;99.90;;;;;;7340346;19;109216;-68
2022/12/07 13:34:53;;;;;;;;;;;8.60;99.90;;;;;;7341928;19;109363;-68
2022/12/07 13:37:20;;;;;;;;;;;8.50;99.90;;;;;;7340153;19;108488;-68
2022/12/07 13:39:49;;;;;;;;;;;8.50;99.90;;;;;;7343525;19;109430;-69
2022/12/07 13:42:26;;;;;;;;;;;8.50;99.90;;;;;;7345670;19;110175;-70
2022/12/07 13:44:53;;;;;;;;;;;8.50;99.90;;;;;;7342898;19;109186;-69
2022/12/07 13:47:39;;;;;;;;;;;8.50;99.90;;;;;;7339957;19;113191;-69
2022/12/07 13:50:29;;;;;;;;;;;8.60;99.90;;;;;;7341293;19;108572;-69
2022/12/07 13:52:57;;;;;;;;;;;8.60;99.90;;;;;;7340356;19;108853;-69
2022/12/07 13:55:25;;;;;;;;;;;8.60;99.90;;;;;;7339473;19;110681;-69
2022/12/07 13:57:53;;;;;;;;;;;8.60;99.90;;;;;;7340503;19;108832;-69
2022/12/07 14:00:24;;;;;;;;;;;8.60;99.90;;;;;;7339473;19;109596;-69
2022/12/07 14:03:02;;;;;;;;;;;8.60;99.90;;;;;;7337727;19;109321;-69
2022/12/07 14:05:30;;;;;;;;;;;8.50;99.90;;;;;;7345632;19;109593;-69
2022/12/07 14:07:59;;;;;;;;;;;8.50;99.90;;;;;;7340193;19;109225;-69
2022/12/07 14:10:27;;;;;;;;;;;8.50;99.90;;;;;;7339044;19;108454;-68
2022/12/07 14:12:55;;;;;;;;;;;8.50;99.90;;;;;;7340891;19;110038;-69
2022/12/07 14:15:23;;;;;;;;;;;8.50;99.90;;;;;;7337854;19;109670;-69
2022/12/07 14:17:51;;;;;;;;;;;8.50;99.90;;;;;;7340847;19;108706;-69
2022/12/07 14:20:32;;;;;;;;;;;8.40;99.90;;;;;;7338517;19;109770;-69
2022/12/07 14:22:59;;;;;;;;;;;8.40;99.90;;;;;;7340445;19;110275;-68
2022/12/07 14:25:27;;;;;;;;;;;8.40;99.90;;;;;;7342019;19;109751;-69
2022/12/07 14:27:55;;;;;;;;;;;8.40;99.90;;;;;;7337548;19;110550;-69
2022/12/07 14:30:23;;;;;;;;;;;8.30;99.90;;;;;;7340100;19;108689;-69
2022/12/07 14:32:52;;;;;;;;;;;8.30;99.90;;;;;;7339934;19;109208;-68
2022/12/07 14:35:19;;;;;;;;;;;8.20;99.90;;;;;;7339104;19;110774;-69
2022/12/07 14:37:47;;;;;;;;;;;8.20;99.90;;;;;;7337615;19;108350;-68